Time;durP1;ratioP1;P1;durP2;ratioP2;P2;SDS_P1;SDS_P2;PMS_P1;PMS_P2;Temp;Humidity;BMP_temperature;BMP_pressure;BME280_temperature;BME280_humidity;BME280_pressure;Samples;Min_cycle;Max_cycle;Signal;HPM_P1;HPM_P2
2021/03/16 00:03:14;;;;;;;5.00;1.90;;;5.90;99.90;;;;;;5043974;28;20263;-66
2021/03/16 00:06:27;;;;;;;11.10;1.92;;;5.80;99.90;;;;;;5028551;28;20193;-67
2021/03/16 00:09:33;;;;;;;12.88;1.70;;;5.80;99.90;;;;;;5031434;28;20439;-67
2021/03/16 00:12:39;;;;;;;11.68;1.55;;;5.70;99.90;;;;;;5050103;28;20056;-67
2021/03/16 00:15:44;;;;;;;14.30;2.30;;;5.70;99.90;;;;;;5028912;28;20318;-66
2021/03/16 00:18:48;;;;;;;12.00;1.70;;;5.70;99.90;;;;;;5029939;28;20048;-66
2021/03/16 00:21:52;;;;;;;13.35;3.80;;;5.50;99.90;;;;;;5029838;28;20048;-67
2021/03/16 00:24:56;;;;;;;13.65;2.35;;;5.40;99.90;;;;;;5030793;28;20048;-66
2021/03/16 00:28:00;;;;;;;11.15;2.22;;;5.30;99.90;;;;;;5044322;28;20040;-66
2021/03/16 00:31:05;;;;;;;7.20;1.88;;;5.20;99.90;;;;;;5030189;28;20064;-67
2021/03/16 00:34:09;;;;;;;10.00;3.05;;;5.10;99.90;;;;;;5029818;28;20037;-66
2021/03/16 00:37:12;;;;;;;11.77;2.53;;;5.00;99.90;;;;;;5029204;28;20399;-67
2021/03/16 00:40:17;;;;;;;12.10;3.00;;;5.00;99.90;;;;;;5029825;28;20052;-66
2021/03/16 00:43:22;;;;;;;14.32;4.05;;;4.90;99.90;;;;;;5029854;28;20431;-65
2021/03/16 00:46:25;;;;;;;18.45;5.03;;;4.80;99.90;;;;;;5038683;28;20649;-67
2021/03/16 00:49:31;;;;;;;14.85;4.05;;;4.70;99.90;;;;;;5029808;28;20064;-67
2021/03/16 00:52:36;;;;;;;9.32;2.83;;;4.70;99.90;;;;;;5029489;28;20040;-67
2021/03/16 00:55:40;;;;;;;14.50;3.40;;;4.70;99.90;;;;;;5029613;28;20042;-67
2021/03/16 00:58:45;;;;;;;10.38;2.67;;;4.80;99.90;;;;;;5028911;28;20065;-67
2021/03/16 01:01:49;;;;;;;13.25;2.95;;;5.00;99.90;;;;;;5029006;28;20398;-67
2021/03/16 01:04:53;;;;;;;21.83;3.30;;;5.00;99.90;;;;;;5029740;28;20040;-67
2021/03/16 01:07:57;;;;;;;10.98;2.88;;;5.00;99.90;;;;;;5028989;28;20032;-67
2021/03/16 01:11:03;;;;;;;11.63;3.58;;;5.10;99.90;;;;;;5031435;28;20040;-65
2021/03/16 01:14:09;;;;;;;12.07;2.63;;;5.10;99.90;;;;;;5029613;28;20105;-65
2021/03/16 01:17:13;;;;;;;11.48;3.00;;;5.20;99.90;;;;;;5029063;28;20048;-66
2021/03/16 01:20:22;;;;;;;14.75;4.03;;;5.30;99.90;;;;;;5029615;28;20044;-66
2021/03/16 01:23:26;;;;;;;9.93;2.50;;;5.30;99.90;;;;;;5029066;28;20052;-67
2021/03/16 01:26:31;;;;;;;12.18;3.65;;;5.10;99.90;;;;;;5028105;28;20049;-66
2021/03/16 01:29:35;;;;;;;13.40;4.70;;;5.00;99.90;;;;;;5029189;28;20049;-66
2021/03/16 01:32:39;;;;;;;38.60;12.93;;;4.80;99.90;;;;;;5028750;28;20113;-66
2021/03/16 01:35:44;;;;;;;25.85;8.73;;;4.70;99.90;;;;;;5038841;28;20052;-65
2021/03/16 01:38:48;;;;;;;25.65;7.47;;;4.50;99.90;;;;;;5029634;28;20083;-67
2021/03/16 01:41:52;;;;;;;14.82;3.28;;;4.40;99.90;;;;;;5032625;28;20396;-65
2021/03/16 01:44:56;;;;;;;15.27;3.33;;;4.30;99.90;;;;;;5033085;28;20044;-64
2021/03/16 01:48:00;;;;;;;16.00;5.93;;;4.30;99.90;;;;;;5032061;28;20407;-65
2021/03/16 01:51:08;;;;;;;11.80;3.50;;;4.20;99.90;;;;;;5033415;28;20048;-66
2021/03/16 01:54:12;;;;;;;11.27;3.40;;;4.10;99.90;;;;;;5036645;28;20036;-67
2021/03/16 01:57:17;;;;;;;7.63;2.90;;;4.00;99.90;;;;;;5049836;28;20518;-66
2021/03/16 02:00:42;;;;;;;11.52;3.30;;;4.00;99.90;;;;;;5047136;28;20029;-66
2021/03/16 02:04:05;;;;;;;18.08;4.82;;;4.10;99.90;;;;;;5045208;28;20040;-67
2021/03/16 02:07:44;;;;;;;11.80;3.17;;;4.00;99.90;;;;;;5031763;28;20060;-65
2021/03/16 02:11:31;;;;;;;17.45;2.95;;;3.90;99.90;;;;;;5032305;28;20049;-67
2021/03/16 02:14:59;;;;;;;18.70;4.70;;;3.80;99.90;;;;;;5032752;28;20072;-65
2021/03/16 02:18:25;;;;;;;12.10;3.22;;;3.80;99.90;;;;;;5048491;28;20052;-66
2021/03/16 02:21:49;;;;;;;9.27;4.07;;;3.70;99.90;;;;;;5046741;28;20049;-66
2021/03/16 02:25:20;;;;;;;11.93;3.67;;;3.60;99.90;;;;;;5039992;28;20030;-66
2021/03/16 02:29:03;;;;;;;11.60;3.80;;;3.60;99.90;;;;;;5043212;28;20040;-66
2021/03/16 02:32:27;;;;;;;22.20;3.70;;;3.50;99.90;;;;;;5039909;28;20107;-66
2021/03/16 02:35:52;;;;;;;14.55;3.80;;;3.30;99.90;;;;;;5032844;28;20044;-66
2021/03/16 02:39:16;;;;;;;29.40;8.73;;;3.10;99.90;;;;;;5041154;28;20518;-66
2021/03/16 02:42:40;;;;;;;27.83;9.90;;;3.10;99.90;;;;;;5037668;28;20040;-65
2021/03/16 02:46:05;;;;;;;21.83;6.28;;;3.00;99.90;;;;;;5049951;28;20514;-67
2021/03/16 02:49:29;;;;;;;12.73;4.65;;;3.00;99.90;;;;;;5035085;28;20112;-66
2021/03/16 02:52:53;;;;;;;17.27;4.13;;;3.10;99.90;;;;;;5031698;28;20040;-66
2021/03/16 02:56:17;;;;;;;29.35;5.38;;;3.10;99.90;;;;;;5031410;28;20044;-65
2021/03/16 02:59:41;;;;;;;20.13;5.68;;;3.20;99.90;;;;;;5038409;28;20052;-65
2021/03/16 03:03:06;;;;;;;14.90;4.72;;;3.10;99.90;;;;;;5030919;28;20116;-66
2021/03/16 03:06:29;;;;;;;25.45;6.22;;;3.10;99.90;;;;;;5041867;28;20052;-66
2021/03/16 03:09:52;;;;;;;17.58;5.72;;;3.00;99.90;;;;;;5030251;28;20381;-66
2021/03/16 03:13:15;;;;;;;16.85;4.75;;;3.00;99.90;;;;;;5031686;28;20044;-66
2021/03/16 03:16:38;;;;;;;17.73;4.90;;;3.00;99.90;;;;;;5037061;28;20048;-67
2021/03/16 03:20:04;;;;;;;13.15;3.78;;;3.10;99.90;;;;;;5030458;28;20458;-67
2021/03/16 03:23:34;;;;;;;18.77;3.53;;;3.10;99.90;;;;;;5030434;28;20044;-67
2021/03/16 03:27:03;;;;;;;15.18;4.15;;;3.20;99.90;;;;;;5029366;28;20048;-66
2021/03/16 03:30:26;;;;;;;20.95;4.40;;;3.30;99.90;;;;;;5030917;28;20048;-66
2021/03/16 03:33:49;;;;;;;10.10;4.55;;;3.10;99.90;;;;;;5030515;28;20048;-66
2021/03/16 03:37:13;;;;;;;18.83;5.13;;;2.80;99.90;;;;;;5030962;28;20052;-65
2021/03/16 03:40:37;;;;;;;22.63;4.97;;;2.70;99.90;;;;;;5031566;28;20056;-67
2021/03/16 03:44:01;;;;;;;23.30;5.68;;;2.80;99.90;;;;;;5030257;28;20407;-66
2021/03/16 03:47:24;;;;;;;27.00;8.35;;;2.80;99.90;;;;;;5034649;28;20051;-66
2021/03/16 03:50:51;;;;;;;18.92;7.60;;;2.70;99.90;;;;;;5044270;28;20455;-65
2021/03/16 03:54:16;;;;;;;25.30;8.32;;;2.70;99.90;;;;;;5029977;28;20040;-66
2021/03/16 03:57:41;;;;;;;26.00;9.45;;;2.70;99.90;;;;;;5030097;28;20044;-66
2021/03/16 04:01:06;;;;;;;23.40;9.13;;;2.80;99.90;;;;;;5029501;28;20037;-66
2021/03/16 04:04:29;;;;;;;23.23;9.60;;;2.80;99.90;;;;;;5029417;28;20036;-66
2021/03/16 04:07:52;;;;;;;25.52;10.50;;;2.80;99.90;;;;;;5029021;28;20048;-64
2021/03/16 04:11:15;;;;;;;35.22;10.75;;;2.80;99.90;;;;;;5029994;28;20521;-66
2021/03/16 04:14:39;;;;;;;31.95;9.98;;;2.80;99.90;;;;;;5030975;28;20270;-66
2021/03/16 04:18:02;;;;;;;31.88;11.07;;;2.90;99.90;;;;;;5029589;28;20041;-66
2021/03/16 04:21:25;;;;;;;26.75;9.43;;;2.90;99.90;;;;;;5030183;28;20052;-66
2021/03/16 04:24:51;;;;;;;25.83;9.57;;;3.00;99.90;;;;;;5029658;28;20439;-67
2021/03/16 04:28:14;;;;;;;21.83;8.23;;;3.10;99.90;;;;;;5029117;28;20044;-66
2021/03/16 04:31:36;;;;;;;27.83;8.10;;;3.20;99.90;;;;;;5037958;28;20052;-65
2021/03/16 04:35:00;;;;;;;20.58;7.82;;;3.20;99.90;;;;;;5034950;28;20034;-66
2021/03/16 04:38:23;;;;;;;23.75;7.22;;;3.20;99.90;;;;;;5029694;28;20045;-65
2021/03/16 04:41:46;;;;;;;21.73;7.90;;;3.20;99.90;;;;;;5031817;28;20056;-65
2021/03/16 04:45:09;;;;;;;19.40;7.50;;;3.10;99.90;;;;;;5029532;28;20040;-67
2021/03/16 04:48:31;;;;;;;21.00;7.18;;;3.10;99.90;;;;;;5029322;28;20048;-66
2021/03/16 04:51:55;;;;;;;22.42;7.60;;;3.30;99.90;;;;;;5043408;28;20461;-66
2021/03/16 04:55:18;;;;;;;18.10;6.40;;;3.40;99.90;;;;;;5029124;28;20044;-67
2021/03/16 04:58:41;;;;;;;17.13;5.90;;;3.50;99.90;;;;;;5028833;28;20044;-67
2021/03/16 05:02:04;;;;;;;23.05;7.95;;;3.50;99.90;;;;;;5029698;28;20494;-67
2021/03/16 05:05:27;;;;;;;17.77;7.65;;;3.40;99.90;;;;;;5028740;28;20130;-66
2021/03/16 05:08:49;;;;;;;24.02;6.90;;;3.40;99.90;;;;;;5028787;28;20041;-67
2021/03/16 05:12:12;;;;;;;19.42;7.63;;;3.30;99.90;;;;;;5047386;28;20040;-67
2021/03/16 05:15:35;;;;;;;27.92;8.55;;;3.10;99.90;;;;;;5032794;28;20419;-66
2021/03/16 05:19:01;;;;;;;17.25;7.47;;;3.00;99.90;;;;;;5032973;28;20521;-65
2021/03/16 05:22:24;;;;;;;22.02;9.88;;;2.90;99.90;;;;;;5033109;28;20056;-67
2021/03/16 05:25:47;;;;;;;28.35;8.75;;;2.80;99.90;;;;;;5031862;28;20411;-66
2021/03/16 05:29:09;;;;;;;27.23;10.43;;;2.70;99.90;;;;;;5042595;28;20569;-66
2021/03/16 05:32:34;;;;;;;20.70;8.60;;;2.70;99.90;;;;;;5032650;28;20052;-67
2021/03/16 05:35:58;;;;;;;48.17;17.15;;;2.60;99.90;;;;;;5032646;28;20060;-66
2021/03/16 05:39:22;;;;;;;44.40;19.95;;;2.60;99.90;;;;;;5032825;28;20523;-67
2021/03/16 05:42:45;;;;;;;49.78;22.40;;;2.60;99.90;;;;;;5043609;28;20398;-66
2021/03/16 05:46:09;;;;;;;98.63;38.22;;;2.70;99.90;;;;;;5032358;28;20040;-65
2021/03/16 05:49:32;;;;;;;110.30;48.63;;;2.80;99.90;;;;;;5036508;28;20044;-66
2021/03/16 05:52:56;;;;;;;84.07;35.40;;;2.90;99.90;;;;;;5034156;28;20037;-66
2021/03/16 05:56:19;;;;;;;46.60;19.55;;;3.00;99.90;;;;;;5036507;28;20072;-65
2021/03/16 05:59:42;;;;;;;42.53;19.33;;;3.20;99.90;;;;;;5034486;28;20060;-66
2021/03/16 06:03:07;;;;;;;38.67;16.13;;;3.30;99.90;;;;;;5032918;28;20515;-67
2021/03/16 06:06:33;;;;;;;35.08;17.45;;;3.40;99.90;;;;;;5032118;28;20048;-65
2021/03/16 06:09:57;;;;;;;56.97;23.77;;;3.50;99.90;;;;;;5032382;28;20499;-67
2021/03/16 06:13:19;;;;;;;40.88;20.42;;;3.00;99.90;;;;;;5033418;28;20039;-67
2021/03/16 06:16:43;;;;;;;52.38;24.30;;;3.10;99.90;;;;;;5029365;28;20056;-67
2021/03/16 06:20:06;;;;;;;38.83;16.08;;;3.20;99.90;;;;;;5028365;28;20400;-67
2021/03/16 06:23:35;;;;;;;35.88;15.95;;;3.20;99.90;;;;;;5029795;28;20041;-67
2021/03/16 06:26:58;;;;;;;34.38;14.93;;;3.40;99.90;;;;;;5027254;28;20041;-67
2021/03/16 06:30:25;;;;;;;24.85;11.13;;;3.40;99.90;;;;;;5029095;28;20539;-67
2021/03/16 06:33:48;;;;;;;21.10;7.47;;;3.70;99.90;;;;;;5026359;28;20052;-67
2021/03/16 06:37:11;;;;;;;17.40;7.47;;;3.90;99.90;;;;;;5027058;28;20049;-67
2021/03/16 06:40:35;;;;;;;21.45;7.53;;;4.30;99.90;;;;;;5030096;28;20059;-65
2021/03/16 06:44:01;;;;;;;33.08;12.60;;;4.90;99.90;;;;;;5033335;28;20048;-66
2021/03/16 06:47:24;;;;;;;20.98;9.10;;;5.60;99.90;;;;;;5040148;28;20521;-67
2021/03/16 06:50:49;;;;;;;14.18;6.80;;;7.70;99.90;;;;;;5033509;28;20056;-66
2021/03/16 06:54:20;;;;;;;17.90;7.20;;;8.30;99.90;;;;;;5037420;28;20494;-65
2021/03/16 06:57:45;;;;;;;16.67;6.73;;;7.90;99.90;;;;;;5037536;28;20558;-68
2021/03/16 07:01:10;;;;;;;16.88;6.70;;;7.70;99.90;;;;;;5029348;28;20051;-66
2021/03/16 07:04:33;;;;;;;14.80;5.40;;;7.30;99.90;;;;;;5031598;28;20048;-65
2021/03/16 07:07:58;;;;;;;16.35;7.20;;;7.40;99.90;;;;;;5034195;28;20052;-66
2021/03/16 07:11:24;;;;;;;11.43;5.30;;;8.40;99.90;;;;;;5032941;28;20044;-67
2021/03/16 07:14:48;;;;;;;14.43;5.20;;;9.50;99.90;;;;;;5027616;28;20530;-66
2021/03/16 07:18:12;;;;;;;16.67;5.85;;;9.70;99.90;;;;;;5030953;28;20523;-66
2021/03/16 07:21:47;;;;;;;10.40;5.53;;;9.70;99.90;;;;;;5034127;28;20514;-66
2021/03/16 07:25:12;;;;;;;17.60;8.00;;;9.50;99.90;;;;;;5037843;28;20033;-67
2021/03/16 07:28:36;;;;;;;13.20;6.32;;;9.40;99.90;;;;;;5035645;28;20051;-67
2021/03/16 07:32:02;;;;;;;10.85;5.57;;;9.40;99.90;;;;;;4996979;28;20052;-67
2021/03/16 07:35:26;;;;;;;16.75;7.50;;;9.60;99.90;;;;;;4990276;28;20060;-66
2021/03/16 07:38:53;;;;;;;16.50;8.45;;;10.40;99.90;;;;;;5009653;28;20048;-66
2021/03/16 07:42:16;;;;;;;10.95;6.75;;;11.80;99.90;;;;;;5017998;28;20052;-65
2021/03/16 07:45:39;;;;;;;15.27;6.00;;;13.30;99.90;;;;;;5018443;28;20044;-66
2021/03/16 07:49:02;;;;;;;15.15;5.40;;;12.70;99.90;;;;;;5027805;28;20073;-66
2021/03/16 07:52:26;;;;;;;13.25;5.28;;;11.10;99.90;;;;;;5029166;28;20049;-65
2021/03/16 07:55:49;;;;;;;12.65;5.63;;;10.50;99.90;;;;;;5017076;28;20040;-66
2021/03/16 07:59:35;;;;;;;15.98;5.88;;;9.70;99.90;;;;;;5018225;28;20534;-66
2021/03/16 08:02:59;;;;;;;17.90;8.20;;;9.80;99.90;;;;;;5024975;28;20052;-66
2021/03/16 08:06:26;;;;;;;16.27;7.35;;;9.80;99.90;;;;;;5018629;28;20040;-64
2021/03/16 08:09:52;;;;;;;13.77;7.03;;;10.50;99.90;;;;;;5023378;28;20044;-66
2021/03/16 08:13:17;;;;;;;12.60;5.60;;;11.10;99.90;;;;;;5020427;28;20715;-66
2021/03/16 08:16:44;;;;;;;19.02;8.00;;;11.40;99.90;;;;;;5028079;28;20052;-65
2021/03/16 08:20:08;;;;;;;20.63;7.22;;;10.00;99.90;;;;;;5027750;28;20052;-67
2021/03/16 08:23:32;;;;;;;18.23;8.15;;;10.50;99.90;;;;;;5027169;28;20060;-67
2021/03/16 08:26:55;;;;;;;15.45;5.85;;;11.10;99.90;;;;;;5028391;28;20047;-66
2021/03/16 08:30:19;;;;;;;14.65;7.45;;;11.00;99.90;;;;;;5022216;28;20518;-67
2021/03/16 08:33:42;;;;;;;15.25;6.72;;;11.10;99.90;;;;;;5025098;28;20040;-66
2021/03/16 08:37:05;;;;;;;12.90;5.90;;;12.40;99.90;;;;;;5034641;28;20482;-66
2021/03/16 08:40:28;;;;;;;13.77;5.85;;;13.10;99.90;;;;;;5020913;28;21111;-67
2021/03/16 08:43:52;;;;;;;15.20;6.80;;;13.90;99.90;;;;;;5025205;28;20052;-65
2021/03/16 08:47:23;;;;;;;11.45;5.80;;;15.70;97.90;;;;;;5019158;28;21272;-66
2021/03/16 08:50:50;;;;;;;12.95;7.03;;;16.40;95.80;;;;;;5014100;28;20040;-67
2021/03/16 08:54:28;;;;;;;13.75;7.28;;;18.00;94.70;;;;;;5012777;28;20040;-68
2021/03/16 08:57:52;;;;;;;12.98;6.85;;;19.10;90.90;;;;;;5013956;28;20056;-69
2021/03/16 09:01:35;;;;;;;12.70;6.85;;;21.60;85.30;;;;;;5010358;28;20052;-67
2021/03/16 09:04:58;;;;;;;13.50;7.38;;;21.30;77.70;;;;;;5025392;28;20418;-68
2021/03/16 09:08:22;;;;;;;13.00;7.05;;;21.60;75.90;;;;;;5038389;28;20036;-68
2021/03/16 09:11:46;;;;;;;11.13;5.35;;;22.80;73.80;;;;;;5040202;28;20048;-68
2021/03/16 09:15:09;;;;;;;9.57;5.10;;;22.40;72.10;;;;;;5032209;28;20040;-67
2021/03/16 09:18:33;;;;;;;14.13;5.00;;;23.00;71.00;;;;;;5031424;28;20044;-68
2021/03/16 09:21:58;;;;;;;8.27;4.13;;;22.60;67.20;;;;;;5031641;28;20044;-67
2021/03/16 09:25:30;;;;;;;7.68;3.90;;;24.50;66.20;;;;;;5030746;28;20056;-67
2021/03/16 09:28:56;;;;;;;8.98;4.60;;;24.50;61.60;;;;;;5030796;28;20056;-68
2021/03/16 09:32:28;;;;;;;6.97;4.30;;;22.90;60.70;;;;;;5033226;28;20399;-68
2021/03/16 09:36:35;;;;;;;8.32;4.00;;;25.60;62.70;;;;;;5031980;28;20333;-68
2021/03/16 09:40:05;;;;;;;6.13;3.80;;;25.60;56.40;;;;;;5029392;28;20055;-68
2021/03/16 09:43:51;;;;;;;4.95;3.08;;;27.80;54.30;;;;;;5030890;28;20411;-68
2021/03/16 09:46:55;;;;;;;8.90;3.50;;;28.40;50.00;;;;;;5032293;28;20049;-68
2021/03/16 09:50:09;;;;;;;5.68;3.20;;;26.20;51.10;;;;;;5033668;28;20041;-69
2021/03/16 09:53:19;;;;;;;6.60;3.10;;;24.80;51.60;;;;;;5032741;28;20435;-67
2021/03/16 09:56:28;;;;;;;5.93;3.45;;;24.60;52.90;;;;;;5031704;28;20048;-67
2021/03/16 09:59:41;;;;;;;4.60;2.80;;;23.00;51.00;;;;;;5034851;28;20048;-67
2021/03/16 10:02:45;;;;;;;6.28;2.80;;;23.80;52.20;;;;;;5032920;28;20036;-68
2021/03/16 10:05:50;;;;;;;4.75;2.40;;;27.00;48.10;;;;;;5037339;28;20052;-67
2021/03/16 10:08:54;;;;;;;3.60;2.50;;;29.00;46.20;;;;;;5035385;28;20045;-68
2021/03/16 10:11:58;;;;;;;3.35;2.35;;;31.30;44.60;;;;;;5037395;28;20040;-68
2021/03/16 10:15:07;;;;;;;2.40;1.83;;;29.50;41.40;;;;;;5035865;28;20040;-68
2021/03/16 10:18:18;;;;;;;8.02;4.10;;;28.20;40.00;;;;;;5042283;28;20049;-68
2021/03/16 10:21:34;;;;;;;3.58;2.47;;;29.20;38.80;;;;;;5036827;28;20048;-66
2021/03/16 10:24:38;;;;;;;4.35;3.15;;;29.50;37.70;;;;;;5041300;28;20044;-68
2021/03/16 10:27:42;;;;;;;5.10;2.78;;;30.20;37.20;;;;;;5035685;28;20126;-68
2021/03/16 10:31:13;;;;;;;4.07;2.80;;;31.50;36.30;;;;;;5038051;28;20499;-68
2021/03/16 10:34:23;;;;;;;4.13;3.17;;;31.60;35.90;;;;;;5037851;28;20052;-66
2021/03/16 10:37:31;;;;;;;8.27;4.70;;;31.10;35.20;;;;;;5024863;28;20045;-67
2021/03/16 10:40:36;;;;;;;3.13;2.53;;;32.10;34.90;;;;;;5036819;28;20052;-67
2021/03/16 10:43:41;;;;;;;2.95;2.42;;;31.30;32.60;;;;;;5037671;28;20040;-67
2021/03/16 10:46:45;;;;;;;3.38;2.40;;;30.30;31.90;;;;;;5041270;28;20049;-67
2021/03/16 10:49:50;;;;;;;16.98;9.18;;;29.40;31.80;;;;;;5040774;28;20036;-67
2021/03/16 10:52:54;;;;;;;2.58;2.10;;;31.20;31.80;;;;;;5035548;28;20032;-67
2021/03/16 10:55:58;;;;;;;12.02;6.85;;;32.30;31.60;;;;;;5043069;28;20052;-68
2021/03/16 10:59:02;;;;;;;2.35;1.65;;;33.00;30.60;;;;;;5034327;28;20028;-67
2021/03/16 11:02:06;;;;;;;3.08;1.98;;;34.80;31.60;;;;;;5039724;28;20052;-68
2021/03/16 11:05:11;;;;;;;3.40;1.77;;;33.40;29.00;;;;;;5039434;28;20052;-68
2021/03/16 11:08:16;;;;;;;2.92;1.88;;;33.00;30.50;;;;;;5039707;28;20044;-67
2021/03/16 11:11:19;;;;;;;5.25;3.40;;;33.60;29.40;;;;;;5041124;28;20044;-67
2021/03/16 11:14:24;;;;;;;2.55;1.80;;;33.90;30.50;;;;;;5029968;28;20052;-68
2021/03/16 11:17:28;;;;;;;2.70;1.70;;;33.90;29.60;;;;;;5035305;28;20052;-68
2021/03/16 11:20:32;;;;;;;1.98;0.90;;;33.60;29.20;;;;;;5041805;28;20064;-66
2021/03/16 11:23:36;;;;;;;1.50;0.80;;;31.40;29.20;;;;;;5036270;28;20043;-66
2021/03/16 11:26:41;;;;;;;1.45;0.88;;;28.30;29.30;;;;;;5037366;28;20048;-66
2021/03/16 11:29:45;;;;;;;3.45;1.70;;;27.60;29.70;;;;;;5042574;28;20048;-68
2021/03/16 11:32:49;;;;;;;1.08;0.70;;;28.30;30.30;;;;;;5036759;28;20044;-68
2021/03/16 11:36:12;;;;;;;2.05;1.15;;;29.50;30.00;;;;;;5037134;28;20051;-65
2021/03/16 11:39:35;;;;;;;1.92;1.02;;;31.20;29.50;;;;;;5034731;28;20051;-68
2021/03/16 11:42:59;;;;;;;1.02;0.80;;;31.20;28.80;;;;;;5040744;28;20048;-68
2021/03/16 11:46:22;;;;;;;2.35;0.85;;;29.70;29.20;;;;;;5039260;28;20048;-67
2021/03/16 11:49:46;;;;;;;5.28;1.38;;;30.10;29.70;;;;;;5045268;28;20047;-68
2021/03/16 11:53:09;;;;;;;1.08;0.88;;;29.50;29.40;;;;;;5039795;28;20048;-68
2021/03/16 11:56:32;;;;;;;3.42;0.80;;;29.70;29.50;;;;;;5035155;28;20043;-68
2021/03/16 11:59:55;;;;;;;1.00;0.70;;;30.70;29.00;;;;;;5039263;28;20403;-67
2021/03/16 12:03:18;;;;;;;1.17;0.30;;;30.00;29.40;;;;;;5048847;28;20407;-68
2021/03/16 12:06:41;;;;;;;0.70;0.50;;;29.90;28.60;;;;;;5047273;28;20044;-68
2021/03/16 12:10:06;;;;;;;1.55;0.50;;;29.50;29.00;;;;;;5028909;28;20503;-67
2021/03/16 12:13:29;;;;;;;1.50;1.10;;;26.60;28.80;;;;;;5030083;28;20044;-67
2021/03/16 12:16:52;;;;;;;0.82;0.28;;;24.00;30.00;;;;;;5034293;28;20043;-67
2021/03/16 12:20:15;;;;;;;0.55;0.32;;;25.00;29.90;;;;;;5032943;28;20407;-68
2021/03/16 12:23:38;;;;;;;0.52;0.30;;;25.60;29.40;;;;;;5047858;28;20043;-67
2021/03/16 12:27:01;;;;;;;0.70;0.43;;;26.10;29.30;;;;;;5033613;28;20036;-67
2021/03/16 12:30:24;;;;;;;1.15;0.50;;;27.40;29.00;;;;;;5033649;28;20494;-67
2021/03/16 12:33:47;;;;;;;0.65;0.22;;;28.20;28.10;;;;;;5030976;28;20052;-67
2021/03/16 12:37:10;;;;;;;1.42;0.70;;;28.10;27.90;;;;;;5037463;28;20043;-66
2021/03/16 12:40:33;;;;;;;0.93;0.60;;;29.50;28.30;;;;;;5034526;28;20056;-67
2021/03/16 12:43:57;;;;;;;0.63;0.55;;;29.50;28.00;;;;;;5040636;28;20072;-66
2021/03/16 12:47:20;;;;;;;0.93;0.40;;;30.40;28.30;;;;;;5028449;28;20044;-67
2021/03/16 12:50:44;;;;;;;0.50;0.40;;;29.60;28.60;;;;;;5040915;28;20032;-66
2021/03/16 12:54:06;;;;;;;0.65;0.40;;;25.70;28.80;;;;;;5049004;28;20036;-67
2021/03/16 12:57:29;;;;;;;0.60;0.20;;;23.40;30.70;;;;;;5035516;28;20053;-68
2021/03/16 13:00:52;;;;;;;1.80;0.43;;;22.00;32.20;;;;;;5040632;28;20068;-69
2021/03/16 13:04:15;;;;;;;0.90;0.40;;;23.30;31.60;;;;;;5030158;28;20048;-68
2021/03/16 13:07:38;;;;;;;1.23;0.50;;;22.90;30.80;;;;;;5032031;28;20079;-68
2021/03/16 13:11:01;;;;;;;0.50;0.30;;;22.80;31.90;;;;;;5030164;28;20044;-66
2021/03/16 13:14:25;;;;;;;1.67;0.68;;;25.30;30.30;;;;;;5026495;28;20048;-66
2021/03/16 13:17:48;;;;;;;1.20;0.40;;;26.60;29.40;;;;;;5024413;28;20056;-69
2021/03/16 13:21:10;;;;;;;1.25;0.35;;;28.40;30.00;;;;;;5025430;28;20087;-67
2021/03/16 13:24:34;;;;;;;0.95;0.40;;;28.90;28.20;;;;;;5027670;28;20124;-68
2021/03/16 13:28:01;;;;;;;0.20;0.20;;;28.20;28.50;;;;;;5030173;28;20049;-68
2021/03/16 13:31:25;;;;;;;0.88;0.50;;;28.30;28.50;;;;;;5031907;28;20407;-69
2021/03/16 13:34:48;;;;;;;1.27;0.40;;;29.10;29.00;;;;;;5036024;28;20250;-68
2021/03/16 13:38:12;;;;;;;0.43;0.25;;;29.30;29.40;;;;;;5035228;28;20514;-68
2021/03/16 13:41:35;;;;;;;0.90;0.52;;;28.00;28.20;;;;;;5036662;28;20048;-68
2021/03/16 13:44:57;;;;;;;0.63;0.52;;;26.20;28.80;;;;;;5037054;28;20415;-68
2021/03/16 13:48:21;;;;;;;1.40;0.77;;;26.90;29.00;;;;;;5035623;28;20048;-68
2021/03/16 13:51:44;;;;;;;2.70;0.50;;;27.00;28.70;;;;;;5037382;28;20226;-68
2021/03/16 13:55:07;;;;;;;2.63;0.52;;;27.70;29.30;;;;;;5039102;28;20052;-67
2021/03/16 13:58:30;;;;;;;1.75;0.77;;;27.60;29.30;;;;;;5034846;28;20051;-68
2021/03/16 14:01:54;;;;;;;1.00;0.60;;;26.90;29.40;;;;;;5039490;28;20402;-69
2021/03/16 14:05:18;;;;;;;2.05;0.40;;;25.40;30.00;;;;;;5045727;28;20541;-68
2021/03/16 14:08:41;;;;;;;7.82;1.10;;;24.80;30.10;;;;;;5036907;28;20037;-68
2021/03/16 14:12:05;;;;;;;4.82;1.08;;;22.60;32.90;;;;;;5039309;28;20040;-68
2021/03/16 14:15:29;;;;;;;2.75;0.80;;;20.50;34.80;;;;;;5032176;28;20044;-68
2021/03/16 14:18:52;;;;;;;2.85;0.98;;;20.00;36.30;;;;;;5030269;28;20060;-68
2021/03/16 14:22:15;;;;;;;1.42;0.80;;;19.90;36.60;;;;;;5029529;28;20040;-67
2021/03/16 14:25:39;;;;;;;0.77;0.60;;;20.20;36.70;;;;;;5029471;28;20052;-67
2021/03/16 14:29:03;;;;;;;2.65;1.85;;;20.30;36.90;;;;;;5029374;28;20475;-67
2021/03/16 14:32:26;;;;;;;2.22;1.10;;;19.40;37.60;;;;;;5029717;28;20040;-68
2021/03/16 14:35:50;;;;;;;2.38;1.13;;;19.00;37.70;;;;;;5029743;28;20064;-67
2021/03/16 14:39:14;;;;;;;1.73;1.10;;;18.60;38.30;;;;;;5030370;28;20052;-66
2021/03/16 14:42:37;;;;;;;1.75;1.13;;;18.00;38.30;;;;;;5036073;28;20045;-67
2021/03/16 14:46:00;;;;;;;2.97;1.77;;;17.40;39.60;;;;;;5034912;28;20047;-67
2021/03/16 14:49:23;;;;;;;3.63;1.60;;;16.70;39.80;;;;;;5035117;28;20052;-66
2021/03/16 14:52:47;;;;;;;3.92;1.52;;;16.20;40.80;;;;;;5036286;28;20044;-68
2021/03/16 14:56:09;;;;;;;3.72;1.70;;;16.40;41.70;;;;;;5034919;28;20047;-68
2021/03/16 14:59:33;;;;;;;2.10;1.20;;;17.00;41.50;;;;;;5035703;28;20518;-68
2021/03/16 15:02:56;;;;;;;1.73;1.10;;;17.80;39.60;;;;;;5034672;28;20044;-67
2021/03/16 15:06:24;;;;;;;2.30;1.38;;;18.10;38.70;;;;;;5035059;28;20039;-68
2021/03/16 15:09:46;;;;;;;2.10;1.27;;;17.80;39.10;;;;;;5020587;28;20052;-67
2021/03/16 15:13:10;;;;;;;2.53;1.50;;;17.30;39.20;;;;;;5027254;28;20056;-68
2021/03/16 15:16:32;;;;;;;3.00;1.63;;;17.20;39.70;;;;;;5029979;28;20046;-68
2021/03/16 15:19:55;;;;;;;4.03;1.95;;;17.10;38.80;;;;;;5031740;28;20400;-67
2021/03/16 15:23:19;;;;;;;2.50;1.50;;;16.80;38.10;;;;;;5022298;28;20048;-67
2021/03/16 15:26:42;;;;;;;3.90;1.70;;;16.90;39.40;;;;;;5022417;28;20052;-67
2021/03/16 15:30:07;;;;;;;2.42;1.27;;;16.80;38.50;;;;;;5026597;28;20048;-67
2021/03/16 15:33:30;;;;;;;2.42;1.40;;;16.80;39.00;;;;;;5020742;28;20502;-65
2021/03/16 15:36:53;;;;;;;3.20;1.30;;;16.70;39.90;;;;;;5025529;28;20057;-65
2021/03/16 15:40:17;;;;;;;2.55;1.15;;;16.80;40.10;;;;;;5024802;28;20063;-67
2021/03/16 15:43:41;;;;;;;6.38;1.30;;;16.60;39.00;;;;;;5022858;28;20056;-66
2021/03/16 15:47:05;;;;;;;2.78;1.38;;;16.60;39.50;;;;;;5030346;28;20056;-66
2021/03/16 15:50:34;;;;;;;3.78;1.27;;;16.70;39.70;;;;;;5031053;28;20056;-65
2021/03/16 15:53:57;;;;;;;2.03;1.05;;;16.50;40.20;;;;;;5023144;28;20048;-67
2021/03/16 15:57:21;;;;;;;2.75;1.40;;;16.20;40.10;;;;;;5029583;28;20052;-67
2021/03/16 16:00:44;;;;;;;2.53;1.02;;;15.80;40.80;;;;;;5031311;28;20065;-65
2021/03/16 16:04:07;;;;;;;3.28;1.05;;;15.60;41.90;;;;;;5025457;28;20056;-65
2021/03/16 16:07:29;;;;;;;1.83;0.85;;;15.30;42.20;;;;;;5032211;28;20052;-67
2021/03/16 16:10:53;;;;;;;2.33;1.00;;;15.10;42.20;;;;;;5020556;28;20048;-67
2021/03/16 16:14:16;;;;;;;3.25;1.20;;;15.00;42.90;;;;;;5025271;28;20044;-65
2021/03/16 16:17:39;;;;;;;2.45;1.17;;;15.00;43.00;;;;;;5024327;28;20052;-67
2021/03/16 16:21:02;;;;;;;9.07;1.90;;;14.90;43.40;;;;;;5024362;28;20053;-67
2021/03/16 16:24:27;;;;;;;3.85;1.10;;;14.90;43.70;;;;;;5022894;28;20040;-67
2021/03/16 16:27:50;;;;;;;1.83;1.40;;;14.70;42.10;;;;;;5024876;28;20478;-67
2021/03/16 16:31:14;;;;;;;3.13;1.05;;;14.40;42.10;;;;;;5024070;28;20056;-65
2021/03/16 16:34:38;;;;;;;2.38;1.20;;;14.10;44.30;;;;;;5033907;28;20501;-66
2021/03/16 16:38:02;;;;;;;2.38;1.35;;;13.60;44.20;;;;;;5030539;28;20043;-66
2021/03/16 16:41:26;;;;;;;2.83;1.00;;;13.30;45.20;;;;;;5023716;28;20048;-66
2021/03/16 16:44:49;;;;;;;4.13;1.15;;;13.10;45.40;;;;;;5021939;28;20225;-66
2021/03/16 16:48:12;;;;;;;2.72;1.10;;;13.00;47.20;;;;;;5023736;28;20052;-66
2021/03/16 16:51:36;;;;;;;2.33;0.98;;;12.90;48.00;;;;;;5023599;28;20411;-66
2021/03/16 16:54:58;;;;;;;3.88;1.40;;;12.70;48.00;;;;;;5024292;28;20056;-65
2021/03/16 16:58:21;;;;;;;1.83;1.02;;;12.50;48.10;;;;;;5026651;28;20407;-65
2021/03/16 17:01:44;;;;;;;2.25;1.02;;;12.30;49.50;;;;;;5027025;28;20048;-66
2021/03/16 17:05:08;;;;;;;2.15;1.00;;;12.20;49.60;;;;;;5020732;28;21005;-67
2021/03/16 17:08:31;;;;;;;2.58;1.08;;;12.00;49.70;;;;;;5030061;28;20051;-67
2021/03/16 17:11:55;;;;;;;3.25;1.50;;;11.90;50.10;;;;;;5025554;28;20028;-63
2021/03/16 17:15:18;;;;;;;1.52;1.05;;;11.80;50.50;;;;;;5031006;28;20048;-67
2021/03/16 17:18:41;;;;;;;4.57;2.20;;;11.70;52.10;;;;;;5032070;28;20044;-67
2021/03/16 17:22:04;;;;;;;2.28;1.50;;;11.60;51.90;;;;;;5026653;28;20048;-65